Time;durP1;ratioP1;P1;durP2;ratioP2;P2;SDS_P1;SDS_P2;PMS_P1;PMS_P2;Temp;Humidity;BMP_temperature;BMP_pressure;BME280_temperature;BME280_humidity;BME280_pressure;Samples;Min_cycle;Max_cycle;Signal;HPM_P1;HPM_P2
2023/08/01 00:00:31;;;;;;;4.07;2.88;;;;;;;;;;5117376;28;20218;-68
2023/08/01 00:02:58;;;;;;;3.67;3.15;;;;;;;;;;5116968;28;20648;-68
2023/08/01 00:05:26;;;;;;;4.18;3.20;;;;;;;;;;5116356;28;20203;-68
2023/08/01 00:07:54;;;;;;;3.45;3.13;;;;;;;;;;5117415;28;20301;-68
2023/08/01 00:10:22;;;;;;;3.72;2.75;;;;;;;;;;5117678;28;20199;-69
2023/08/01 00:12:51;;;;;;;3.72;3.42;;;;;;;;;;5117647;28;20202;-69
2023/08/01 00:15:19;;;;;;;4.80;3.55;;;;;;;;;;5117481;28;20213;-69
2023/08/01 00:17:46;;;;;;;3.55;3.17;;;;;;;;;;5117014;28;20265;-69
2023/08/01 00:20:14;;;;;;;4.55;2.95;;;;;;;;;;5117221;28;20231;-68
2023/08/01 00:22:41;;;;;;;5.00;3.15;;;;;;;;;;5117018;28;20246;-69
2023/08/01 00:25:09;;;;;;;3.58;3.20;;;;;;;;;;5117170;28;20230;-69
2023/08/01 00:27:37;;;;;;;3.88;3.25;;;;;;;;;;5117582;28;20206;-69
2023/08/01 00:30:07;;;;;;;3.70;3.20;;;;;;;;;;5117275;28;20217;-69
2023/08/01 00:32:35;;;;;;;3.78;3.47;;;;;;;;;;5117012;28;20203;-69
2023/08/01 00:35:02;;;;;;;3.50;3.20;;;;;;;;;;5117087;28;20203;-69
2023/08/01 00:37:30;;;;;;;3.97;3.28;;;;;;;;;;5117481;28;20250;-69
2023/08/01 00:39:58;;;;;;;3.45;3.15;;;;;;;;;;5116967;28;20609;-69
2023/08/01 00:42:25;;;;;;;4.45;3.13;;;;;;;;;;5117083;28;20240;-69
2023/08/01 00:44:54;;;;;;;3.40;3.10;;;;;;;;;;5117304;28;20203;-69
2023/08/01 00:47:23;;;;;;;3.38;3.08;;;;;;;;;;5117448;28;20644;-68
2023/08/01 00:49:50;;;;;;;4.13;2.90;;;;;;;;;;5117386;28;20207;-68
2023/08/01 00:52:19;;;;;;;3.20;2.75;;;;;;;;;;5116922;28;20337;-69
2023/08/01 00:54:46;;;;;;;3.40;3.10;;;;;;;;;;5117610;28;20203;-69
2023/08/01 00:57:14;;;;;;;3.58;3.00;;;;;;;;;;5117202;28;20207;-69
2023/08/01 00:59:42;;;;;;;3.03;2.70;;;;;;;;;;5116231;28;20227;-68
2023/08/01 01:02:11;;;;;;;3.00;2.70;;;;;;;;;;5116866;28;20199;-69
2023/08/01 01:04:40;;;;;;;3.03;2.72;;;;;;;;;;5117206;28;20574;-68
2023/08/01 01:07:08;;;;;;;3.28;2.70;;;;;;;;;;5116810;28;20306;-68
2023/08/01 01:09:36;;;;;;;3.35;2.88;;;;;;;;;;5116979;28;20570;-68
2023/08/01 01:12:04;;;;;;;3.60;2.90;;;;;;;;;;5116196;28;20217;-68
2023/08/01 01:14:32;;;;;;;3.05;2.75;;;;;;;;;;5117214;28;20567;-68
2023/08/01 01:17:00;;;;;;;3.42;2.80;;;;;;;;;;5120287;28;20286;-69
2023/08/01 01:19:27;;;;;;;3.10;2.80;;;;;;;;;;5120447;28;20238;-69
2023/08/01 01:22:16;;;;;;;4.80;3.00;;;;;;;;;;5120592;28;20210;-69
2023/08/01 01:24:47;;;;;;;2.88;2.55;;;;;;;;;;5120726;28;20742;-68
2023/08/01 01:27:14;;;;;;;3.40;2.90;;;;;;;;;;5120534;28;20203;-68
2023/08/01 01:29:42;;;;;;;3.25;2.72;;;;;;;;;;5120418;28;20199;-68
2023/08/01 01:32:10;;;;;;;3.05;2.70;;;;;;;;;;5120246;28;20206;-68
2023/08/01 01:34:38;;;;;;;2.70;2.50;;;;;;;;;;5120598;28;20272;-68
2023/08/01 01:37:06;;;;;;;3.13;2.83;;;;;;;;;;5119992;28;20199;-68
2023/08/01 01:39:34;;;;;;;2.80;2.60;;;;;;;;;;5120241;28;20229;-68
2023/08/01 01:42:03;;;;;;;2.90;2.65;;;;;;;;;;5120490;28;20203;-68
2023/08/01 01:44:31;;;;;;;2.88;2.67;;;;;;;;;;5120291;28;20203;-68
2023/08/01 01:46:59;;;;;;;2.80;2.55;;;;;;;;;;5120038;28;20306;-68
2023/08/01 01:49:26;;;;;;;3.08;2.60;;;;;;;;;;5120188;28;20203;-69
2023/08/01 01:51:54;;;;;;;2.55;2.35;;;;;;;;;;5119822;28;20238;-69
2023/08/01 01:54:21;;;;;;;3.00;2.67;;;;;;;;;;5119997;28;20286;-69
2023/08/01 01:56:49;;;;;;;2.78;2.55;;;;;;;;;;5119462;28;20500;-69
2023/08/01 01:59:18;;;;;;;3.10;2.60;;;;;;;;;;5119632;28;20233;-68
2023/08/01 02:01:46;;;;;;;2.92;2.72;;;;;;;;;;5119840;28;20487;-68
2023/08/01 02:04:13;;;;;;;2.53;2.33;;;;;;;;;;5119777;28;20597;-69
2023/08/01 02:06:41;;;;;;;2.55;2.35;;;;;;;;;;5119620;28;20211;-68
2023/08/01 02:09:09;;;;;;;3.30;2.67;;;;;;;;;;5119570;28;20210;-68
2023/08/01 02:11:36;;;;;;;2.80;2.45;;;;;;;;;;5119500;28;20203;-68
2023/08/01 02:14:04;;;;;;;3.75;2.45;;;;;;;;;;5120046;28;20209;-68
2023/08/01 02:16:33;;;;;;;2.78;2.13;;;;;;;;;;5119533;28;20214;-68
2023/08/01 02:19:01;;;;;;;3.47;2.63;;;;;;;;;;5119634;28;20203;-68
2023/08/01 02:21:28;;;;;;;2.47;2.28;;;;;;;;;;5119168;28;20202;-68
2023/08/01 02:23:56;;;;;;;2.45;2.25;;;;;;;;;;5119008;28;20209;-69
2023/08/01 02:26:24;;;;;;;3.00;2.53;;;;;;;;;;5118763;28;20206;-69
2023/08/01 02:28:52;;;;;;;2.65;2.45;;;;;;;;;;5119295;28;20203;-69
2023/08/01 02:31:19;;;;;;;2.55;2.35;;;;;;;;;;5119009;28;20589;-69
2023/08/01 02:33:49;;;;;;;3.08;2.30;;;;;;;;;;5119153;28;20214;-69
2023/08/01 02:36:16;;;;;;;4.20;2.25;;;;;;;;;;5119134;28;20205;-68
2023/08/01 02:38:44;;;;;;;3.00;2.70;;;;;;;;;;5119293;28;20297;-69
2023/08/01 02:41:12;;;;;;;2.58;2.30;;;;;;;;;;5118910;28;20235;-68
2023/08/01 02:43:39;;;;;;;2.50;2.30;;;;;;;;;;5118863;28;20199;-68
2023/08/01 02:46:07;;;;;;;2.92;2.58;;;;;;;;;;5119066;28;20202;-68
2023/08/01 02:48:35;;;;;;;2.78;2.50;;;;;;;;;;5119081;28;20203;-68
2023/08/01 02:51:05;;;;;;;2.30;2.10;;;;;;;;;;5118953;28;20222;-68
2023/08/01 02:53:32;;;;;;;2.88;2.20;;;;;;;;;;5118860;28;20567;-68
2023/08/01 02:56:00;;;;;;;2.78;2.45;;;;;;;;;;5118899;28;20298;-68
2023/08/01 02:58:28;;;;;;;2.50;2.10;;;;;;;;;;5118671;28;20210;-69
2023/08/01 03:00:56;;;;;;;2.72;2.35;;;;;;;;;;5118506;28;20222;-69
2023/08/01 03:03:23;;;;;;;2.22;2.03;;;;;;;;;;5118579;28;20203;-69
2023/08/01 03:05:51;;;;;;;2.90;1.95;;;;;;;;;;5118530;28;20629;-69
2023/08/01 03:08:20;;;;;;;2.97;2.20;;;;;;;;;;5118789;28;20466;-68
2023/08/01 03:10:48;;;;;;;2.35;2.15;;;;;;;;;;5118455;28;20203;-68
2023/08/01 03:13:16;;;;;;;2.20;2.00;;;;;;;;;;5118367;28;20242;-68
2023/08/01 03:15:45;;;;;;;2.40;2.20;;;;;;;;;;5117961;28;20578;-68
2023/08/01 03:18:13;;;;;;;2.88;2.22;;;;;;;;;;5118092;28;20198;-69
2023/08/01 03:20:40;;;;;;;2.17;1.98;;;;;;;;;;5118337;28;20235;-68
2023/08/01 03:23:08;;;;;;;2.90;2.05;;;;;;;;;;5118198;28;20489;-68
2023/08/01 03:25:37;;;;;;;2.10;2.00;;;;;;;;;;5117825;28;20605;-68
2023/08/01 03:28:06;;;;;;;2.25;2.05;;;;;;;;;;5116923;28;20305;-68
2023/08/01 03:30:33;;;;;;;2.30;2.10;;;;;;;;;;5118123;28;20207;-68
2023/08/01 03:33:02;;;;;;;2.78;2.58;;;;;;;;;;5117679;28;20546;-68
2023/08/01 03:35:30;;;;;;;2.20;2.00;;;;;;;;;;5117858;28;20234;-69
2023/08/01 03:37:58;;;;;;;2.78;2.30;;;;;;;;;;5117047;28;20570;-68
2023/08/01 03:40:25;;;;;;;2.20;2.00;;;;;;;;;;5117621;28;20317;-68
2023/08/01 03:42:54;;;;;;;2.58;2.38;;;;;;;;;;5117703;28;20267;-69
2023/08/01 03:45:22;;;;;;;2.55;2.00;;;;;;;;;;5117749;28;20207;-69
2023/08/01 03:47:50;;;;;;;2.60;2.30;;;;;;;;;;5117320;28;20215;-69
2023/08/01 03:50:17;;;;;;;2.65;2.40;;;;;;;;;;5117360;28;20191;-68
2023/08/01 03:52:45;;;;;;;2.30;2.10;;;;;;;;;;5117268;28;20601;-68
2023/08/01 03:55:13;;;;;;;2.63;2.17;;;;;;;;;;5116984;28;20206;-68
2023/08/01 03:57:40;;;;;;;2.10;1.90;;;;;;;;;;5116948;28;20199;-68
2023/08/01 04:00:13;;;;;;;2.95;2.10;;;;;;;;;;5116330;28;20632;-69
2023/08/01 04:02:41;;;;;;;2.90;2.08;;;;;;;;;;5117469;28;20203;-69
2023/08/01 04:05:09;;;;;;;2.38;2.08;;;;;;;;;;5117022;28;20210;-68
2023/08/01 04:07:37;;;;;;;2.40;2.20;;;;;;;;;;5117161;28;20199;-68
2023/08/01 04:10:04;;;;;;;2.47;2.25;;;;;;;;;;5117726;28;20249;-68
2023/08/01 04:12:32;;;;;;;2.80;2.05;;;;;;;;;;5117076;28;20202;-68
2023/08/01 04:15:00;;;;;;;2.88;2.35;;;;;;;;;;5117423;28;20620;-68
2023/08/01 04:17:29;;;;;;;2.17;1.98;;;;;;;;;;5117202;28;20285;-68
2023/08/01 04:19:57;;;;;;;2.38;1.92;;;;;;;;;;5116725;28;20495;-68
2023/08/01 04:22:24;;;;;;;2.58;2.38;;;;;;;;;;5116673;28;20207;-68
2023/08/01 04:24:52;;;;;;;2.15;1.95;;;;;;;;;;5117173;28;20309;-68
2023/08/01 04:27:19;;;;;;;2.20;1.90;;;;;;;;;;5117254;28;20633;-69
2023/08/01 04:29:47;;;;;;;2.78;1.88;;;;;;;;;;5116608;28;20231;-69
2023/08/01 04:32:15;;;;;;;1.95;1.83;;;;;;;;;;5116584;28;20234;-68
2023/08/01 04:34:43;;;;;;;2.17;1.65;;;;;;;;;;5117083;28;20203;-68
2023/08/01 04:37:11;;;;;;;1.80;1.70;;;;;;;;;;5116875;28;20209;-68
2023/08/01 04:39:38;;;;;;;2.30;1.90;;;;;;;;;;5116952;28;20202;-68
2023/08/01 04:42:06;;;;;;;2.35;1.80;;;;;;;;;;5116640;28;20302;-68
2023/08/01 04:44:34;;;;;;;2.75;1.88;;;;;;;;;;5117107;28;20238;-68
2023/08/01 04:47:01;;;;;;;2.20;1.95;;;;;;;;;;5116794;28;20221;-68
2023/08/01 04:49:29;;;;;;;3.03;2.20;;;;;;;;;;5119356;28;20203;-68
2023/08/01 04:51:57;;;;;;;3.05;2.10;;;;;;;;;;5120459;28;20584;-68
2023/08/01 04:54:25;;;;;;;2.45;1.95;;;;;;;;;;5119783;28;20560;-68
2023/08/01 04:56:52;;;;;;;1.98;1.80;;;;;;;;;;5120090;28;20582;-68
2023/08/01 04:59:20;;;;;;;2.58;1.88;;;;;;;;;;5119867;28;20206;-68
2023/08/01 05:01:47;;;;;;;2.92;2.17;;;;;;;;;;5120551;28;20226;-68
2023/08/01 05:04:14;;;;;;;2.50;2.17;;;;;;;;;;5119729;28;20294;-68
2023/08/01 05:06:42;;;;;;;2.13;1.92;;;;;;;;;;5120035;28;20240;-68
2023/08/01 05:09:11;;;;;;;2.78;1.85;;;;;;;;;;5119681;28;20284;-68
2023/08/01 05:11:38;;;;;;;2.40;2.20;;;;;;;;;;5120130;28;20297;-68
2023/08/01 05:14:06;;;;;;;2.25;2.05;;;;;;;;;;5120327;28;20290;-68
2023/08/01 05:16:33;;;;;;;2.10;1.90;;;;;;;;;;5120055;28;20234;-68
2023/08/01 05:19:01;;;;;;;2.38;1.95;;;;;;;;;;5119699;28;20230;-68
2023/08/01 05:21:28;;;;;;;3.17;2.30;;;;;;;;;;5119722;28;20313;-68
2023/08/01 05:23:56;;;;;;;2.85;2.00;;;;;;;;;;5119655;28;20238;-68
2023/08/01 05:26:24;;;;;;;2.30;2.10;;;;;;;;;;5119497;28;20285;-68
2023/08/01 05:28:52;;;;;;;2.35;2.08;;;;;;;;;;5119685;28;20203;-68
2023/08/01 05:31:19;;;;;;;2.58;2.25;;;;;;;;;;5119339;28;20205;-68
2023/08/01 05:33:47;;;;;;;2.30;2.10;;;;;;;;;;5119619;28;20238;-68
2023/08/01 05:36:14;;;;;;;2.92;2.45;;;;;;;;;;5118993;28;20206;-68
2023/08/01 05:38:42;;;;;;;3.25;2.30;;;;;;;;;;5117890;28;20570;-68
2023/08/01 05:41:09;;;;;;;2.08;1.88;;;;;;;;;;5118622;28;20313;-68
2023/08/01 05:43:38;;;;;;;2.50;2.30;;;;;;;;;;5119020;28;20203;-68
2023/08/01 05:46:05;;;;;;;2.53;2.28;;;;;;;;;;5118185;28;20591;-69
2023/08/01 05:48:32;;;;;;;2.40;2.20;;;;;;;;;;5119578;28;20285;-68
2023/08/01 05:51:00;;;;;;;2.50;2.30;;;;;;;;;;5119291;28;20270;-68
2023/08/01 05:53:28;;;;;;;2.70;2.50;;;;;;;;;;5118824;28;20242;-68
2023/08/01 05:55:56;;;;;;;2.85;2.10;;;;;;;;;;5118851;28;20221;-69
2023/08/01 05:58:23;;;;;;;3.50;2.50;;;;;;;;;;5118706;28;20578;-69
2023/08/01 06:00:52;;;;;;;2.60;2.40;;;;;;;;;;5117406;28;20317;-69
2023/08/01 06:03:19;;;;;;;2.70;2.40;;;;;;;;;;5119223;28;20203;-69
2023/08/01 06:05:47;;;;;;;2.83;2.40;;;;;;;;;;5118800;28;20283;-68
2023/08/01 06:08:15;;;;;;;2.30;2.10;;;;;;;;;;5118642;28;20297;-68
2023/08/01 06:10:43;;;;;;;3.42;2.22;;;;;;;;;;5117959;28;20203;-68
2023/08/01 06:13:10;;;;;;;2.25;2.00;;;;;;;;;;5118738;28;20252;-68
2023/08/01 06:15:38;;;;;;;2.15;1.95;;;;;;;;;;5118421;28;20290;-69
2023/08/01 06:18:06;;;;;;;2.13;1.92;;;;;;;;;;5118217;28;20716;-68
2023/08/01 06:20:34;;;;;;;2.40;2.20;;;;;;;;;;5118677;28;20235;-68
2023/08/01 06:23:01;;;;;;;2.20;2.00;;;;;;;;;;5118697;28;20213;-68
2023/08/01 06:25:29;;;;;;;2.22;2.03;;;;;;;;;;5117557;28;20293;-69
2023/08/01 06:27:56;;;;;;;1.95;1.83;;;;;;;;;;5118468;28;20203;-69
2023/08/01 06:30:23;;;;;;;1.95;1.80;;;;;;;;;;5117847;28;20499;-69
2023/08/01 06:32:51;;;;;;;2.08;1.88;;;;;;;;;;5118323;28;20213;-68
2023/08/01 06:35:21;;;;;;;2.15;1.95;;;;;;;;;;5118310;28;20217;-69
2023/08/01 06:37:48;;;;;;;2.53;1.60;;;;;;;;;;5118008;28;20207;-69
2023/08/01 06:40:15;;;;;;;2.10;1.80;;;;;;;;;;5118079;28;20293;-68
2023/08/01 06:42:43;;;;;;;2.30;1.80;;;;;;;;;;5117254;28;20273;-68
2023/08/01 06:45:11;;;;;;;1.95;1.67;;;;;;;;;;5117861;28;20797;-68
2023/08/01 06:47:38;;;;;;;1.92;1.67;;;;;;;;;;5117361;28;20198;-68
2023/08/01 06:50:06;;;;;;;1.90;1.80;;;;;;;;;;5117927;28;20598;-68
2023/08/01 06:52:35;;;;;;;1.85;1.60;;;;;;;;;;5117304;28;20230;-68
2023/08/01 06:55:02;;;;;;;1.60;1.50;;;;;;;;;;5118173;28;20242;-68
2023/08/01 06:57:30;;;;;;;2.30;1.90;;;;;;;;;;5117431;28;20211;-69
2023/08/01 06:59:58;;;;;;;1.70;1.60;;;;;;;;;;5117289;28;20203;-68
2023/08/01 07:02:26;;;;;;;2.20;1.70;;;;;;;;;;5117348;28;20321;-68
2023/08/01 07:04:53;;;;;;;1.77;1.67;;;;;;;;;;5117475;28;20612;-68
2023/08/01 07:07:21;;;;;;;1.52;1.40;;;;;;;;;;5116505;28;20508;-68
2023/08/01 07:09:50;;;;;;;1.90;1.50;;;;;;;;;;5117203;28;20199;-69
2023/08/01 07:12:17;;;;;;;1.75;1.52;;;;;;;;;;5117264;28;20206;-69
2023/08/01 07:14:45;;;;;;;1.75;1.52;;;;;;;;;;5117050;28;20234;-68
2023/08/01 07:17:12;;;;;;;1.50;1.40;;;;;;;;;;5117227;28;20211;-68
2023/08/01 07:19:39;;;;;;;2.65;1.52;;;;;;;;;;5116785;28;20678;-68
2023/08/01 07:22:07;;;;;;;1.55;1.40;;;;;;;;;;5117405;28;20253;-68
2023/08/01 07:24:34;;;;;;;1.60;1.30;;;;;;;;;;5117507;28;20301;-68
2023/08/01 07:27:03;;;;;;;1.45;1.30;;;;;;;;;;5117355;28;20275;-68
2023/08/01 07:29:31;;;;;;;2.08;1.60;;;;;;;;;;5116453;28;20250;-68
2023/08/01 07:31:58;;;;;;;1.83;1.55;;;;;;;;;;5116509;28;20207;-69
2023/08/01 07:34:26;;;;;;;1.60;1.50;;;;;;;;;;5116925;28;20310;-68
2023/08/01 07:36:53;;;;;;;1.65;1.30;;;;;;;;;;5117001;28;20209;-69
2023/08/01 07:39:20;;;;;;;1.50;1.40;;;;;;;;;;5116941;28;20213;-69
2023/08/01 07:41:48;;;;;;;1.30;1.20;;;;;;;;;;5116569;28;20227;-68
2023/08/01 07:44:17;;;;;;;1.30;1.15;;;;;;;;;;5116201;28;20296;-68
2023/08/01 07:46:44;;;;;;;1.20;1.10;;;;;;;;;;5116977;28;20480;-68
2023/08/01 07:49:12;;;;;;;1.33;1.10;;;;;;;;;;5115654;28;20570;-69
2023/08/01 07:51:39;;;;;;;1.23;1.00;;;;;;;;;;5115549;28;20656;-68
2023/08/01 07:54:06;;;;;;;1.40;1.30;;;;;;;;;;5116960;28;20638;-68
2023/08/01 07:56:34;;;;;;;1.55;1.33;;;;;;;;;;5116583;28;20242;-68
2023/08/01 07:59:01;;;;;;;1.80;1.10;;;;;;;;;;5112421;28;20653;-68
2023/08/01 08:01:30;;;;;;;1.23;1.13;;;;;;;;;;5116158;28;20608;-68
2023/08/01 08:03:57;;;;;;;1.20;1.05;;;;;;;;;;5116138;28;20207;-68
2023/08/01 08:06:25;;;;;;;1.05;0.95;;;;;;;;;;5115429;28;20297;-68
2023/08/01 08:08:53;;;;;;;0.95;0.90;;;;;;;;;;5115904;28;20289;-68
2023/08/01 08:11:20;;;;;;;1.23;0.98;;;;;;;;;;5116765;28;20285;-68
2023/08/01 08:13:47;;;;;;;1.13;0.82;;;;;;;;;;5116055;28;20198;-68
2023/08/01 08:16:15;;;;;;;1.10;0.90;;;;;;;;;;5115456;28;20633;-68
2023/08/01 08:18:44;;;;;;;1.10;1.00;;;;;;;;;;5116241;28;20290;-68
2023/08/01 08:21:11;;;;;;;1.02;0.93;;;;;;;;;;5115392;28;20310;-68
2023/08/01 08:23:39;;;;;;;1.13;0.95;;;;;;;;;;5116775;28;20202;-68
2023/08/01 08:26:07;;;;;;;1.08;0.90;;;;;;;;;;5120061;28;20202;-68
2023/08/01 08:28:35;;;;;;;1.13;0.80;;;;;;;;;;5120064;28;20203;-69
2023/08/01 08:31:04;;;;;;;1.10;1.00;;;;;;;;;;5119734;28;20613;-69
2023/08/01 08:33:31;;;;;;;1.27;0.95;;;;;;;;;;5119720;28;20214;-68
2023/08/01 08:36:00;;;;;;;1.27;1.08;;;;;;;;;;5119367;28;20297;-68
2023/08/01 08:38:29;;;;;;;1.00;0.90;;;;;;;;;;5119290;28;20199;-68
2023/08/01 08:41:03;;;;;;;1.50;0.93;;;;;;;;;;5102686;28;20230;-68
2023/08/01 08:43:32;;;;;;;0.88;0.70;;;;;;;;;;5099498;28;20203;-68
2023/08/01 08:46:01;;;;;;;1.48;0.70;;;;;;;;;;5099071;28;20249;-68
2023/08/01 08:48:29;;;;;;;0.73;0.70;;;;;;;;;;5099023;28;20235;-68
2023/08/01 08:50:58;;;;;;;0.85;0.80;;;;;;;;;;5098603;28;20242;-68
2023/08/01 08:53:27;;;;;;;0.60;0.60;;;;;;;;;;5098372;28;20286;-68
2023/08/01 08:55:55;;;;;;;1.17;0.80;;;;;;;;;;5099015;28;20286;-69
2023/08/01 08:58:22;;;;;;;0.60;0.60;;;;;;;;;;5119433;28;20286;-68
2023/08/01 09:00:50;;;;;;;1.02;0.90;;;;;;;;;;5118760;28;20203;-68
2023/08/01 09:03:17;;;;;;;0.68;0.52;;;;;;;;;;5118522;28;20264;-68
2023/08/01 09:05:48;;;;;;;0.52;0.50;;;;;;;;;;5119394;28;20293;-68
2023/08/01 09:08:18;;;;;;;1.30;0.60;;;;;;;;;;5119574;28;20286;-68
2023/08/01 09:10:47;;;;;;;0.70;0.60;;;;;;;;;;5119158;28;20493;-68
2023/08/01 09:13:14;;;;;;;0.73;0.70;;;;;;;;;;5118214;28;20246;-68
2023/08/01 09:15:43;;;;;;;0.75;0.68;;;;;;;;;;5119139;28;20707;-68
2023/08/01 09:18:10;;;;;;;0.60;0.60;;;;;;;;;;5118956;28;20202;-68
2023/08/01 09:20:47;;;;;;;0.73;0.60;;;;;;;;;;5119467;28;20310;-68
2023/08/01 09:23:15;;;;;;;0.50;0.50;;;;;;;;;;5118806;28;20262;-68
2023/08/01 09:25:43;;;;;;;0.90;0.65;;;;;;;;;;5119395;28;20202;-68
2023/08/01 09:28:18;;;;;;;1.65;0.70;;;;;;;;;;5119199;28;20238;-68
2023/08/01 09:30:54;;;;;;;0.82;0.70;;;;;;;;;;5119011;28;20225;-69
2023/08/01 09:33:21;;;;;;;0.80;0.70;;;;;;;;;;5119686;28;20199;-69
2023/08/01 09:35:50;;;;;;;0.90;0.90;;;;;;;;;;5117592;28;20213;-68
2023/08/01 09:38:18;;;;;;;1.13;0.80;;;;;;;;;;5118612;28;20245;-68
2023/08/01 09:40:46;;;;;;;1.23;0.73;;;;;;;;;;5118283;28;20604;-68
2023/08/01 09:43:14;;;;;;;1.38;0.90;;;;;;;;;;5118884;28;20227;-68
2023/08/01 09:45:52;;;;;;;1.25;0.95;;;;;;;;;;5118353;28;20211;-68
2023/08/01 09:48:24;;;;;;;1.10;0.90;;;;;;;;;;5118964;28;20203;-68
2023/08/01 09:50:53;;;;;;;1.45;1.20;;;;;;;;;;5117575;28;20227;-68
2023/08/01 09:53:20;;;;;;;1.73;1.23;;;;;;;;;;5118474;28;20207;-69
2023/08/01 09:55:49;;;;;;;1.40;1.30;;;;;;;;;;5118103;28;20297;-68
2023/08/01 09:58:19;;;;;;;2.20;1.50;;;;;;;;;;5118319;28;20234;-68
2023/08/01 10:00:46;;;;;;;1.65;1.55;;;;;;;;;;5117103;28;20286;-68
2023/08/01 10:03:15;;;;;;;1.83;1.60;;;;;;;;;;5117735;28;20748;-69
2023/08/01 10:05:43;;;;;;;1.80;1.70;;;;;;;;;;5117398;28;20665;-69
2023/08/01 10:08:11;;;;;;;2.03;1.70;;;;;;;;;;5118134;28;20205;-68
2023/08/01 10:10:39;;;;;;;1.55;1.45;;;;;;;;;;5117575;28;20226;-68
2023/08/01 10:13:06;;;;;;;2.28;1.70;;;;;;;;;;5117660;28;20290;-68
2023/08/01 10:15:34;;;;;;;1.95;1.75;;;;;;;;;;5117582;28;20202;-69
2023/08/01 10:18:02;;;;;;;1.83;1.70;;;;;;;;;;5118293;28;20294;-68
2023/08/01 10:20:32;;;;;;;1.90;1.73;;;;;;;;;;5117843;28;20294;-68
2023/08/01 10:22:59;;;;;;;2.10;1.90;;;;;;;;;;5117051;28;20268;-68
2023/08/01 10:25:27;;;;;;;1.98;1.75;;;;;;;;;;5116418;28;20582;-68
2023/08/01 10:28:01;;;;;;;1.70;1.60;;;;;;;;;;5116750;28;20199;-68
2023/08/01 10:30:29;;;;;;;1.63;1.52;;;;;;;;;;5117262;28;20209;-68
2023/08/01 10:32:57;;;;;;;2.45;2.25;;;;;;;;;;5116517;28;20216;-68
2023/08/01 10:35:35;;;;;;;2.25;1.95;;;;;;;;;;5115950;28;20203;-68
2023/08/01 10:38:05;;;;;;;2.05;1.88;;;;;;;;;;5117102;28;20202;-68
2023/08/01 10:40:37;;;;;;;1.90;1.80;;;;;;;;;;5117303;28;20213;-68
2023/08/01 10:43:04;;;;;;;3.33;1.90;;;;;;;;;;5116529;28;20613;-68
2023/08/01 10:45:32;;;;;;;2.25;1.70;;;;;;;;;;5117040;28;20206;-68
2023/08/01 10:48:09;;;;;;;2.03;1.75;;;;;;;;;;5116620;28;20194;-68
2023/08/01 10:50:38;;;;;;;3.15;1.88;;;;;;;;;;5116856;28;20243;-68
2023/08/01 10:53:06;;;;;;;2.13;1.63;;;;;;;;;;5116607;28;20305;-68
2023/08/01 10:55:41;;;;;;;2.17;1.60;;;;;;;;;;5116476;28;20217;-68
2023/08/01 10:58:08;;;;;;;1.70;1.60;;;;;;;;;;5117056;28;20484;-68
2023/08/01 11:00:36;;;;;;;1.88;1.63;;;;;;;;;;5116838;28;20299;-68
2023/08/01 11:03:03;;;;;;;1.63;1.52;;;;;;;;;;5116443;28;20230;-68
2023/08/01 11:05:31;;;;;;;1.48;1.30;;;;;;;;;;5115943;28;20203;-69
2023/08/01 11:08:00;;;;;;;1.65;1.55;;;;;;;;;;5116415;28;20203;-68
2023/08/01 11:10:28;;;;;;;1.52;1.38;;;;;;;;;;5117161;28;20630;-68
2023/08/01 11:12:56;;;;;;;2.45;1.40;;;;;;;;;;5117578;28;20234;-68
2023/08/01 11:15:23;;;;;;;1.50;1.40;;;;;;;;;;5116851;28;20206;-68
2023/08/01 11:17:51;;;;;;;1.23;1.10;;;;;;;;;;5116618;28;20284;-68
2023/08/01 11:20:20;;;;;;;1.73;1.52;;;;;;;;;;5116023;28;20195;-68
2023/08/01 11:22:52;;;;;;;1.52;1.40;;;;;;;;;;5116806;28;20489;-68
2023/08/01 11:25:22;;;;;;;1.40;1.30;;;;;;;;;;5117193;28;20575;-68
2023/08/01 11:27:49;;;;;;;1.80;1.70;;;;;;;;;;5115954;28;20210;-68
2023/08/01 11:30:17;;;;;;;1.75;1.65;;;;;;;;;;5115766;28;20294;-68
2023/08/01 11:32:44;;;;;;;3.53;3.05;;;;;;;;;;5116307;28;20195;-68
2023/08/01 11:35:19;;;;;;;2.97;2.40;;;;;;;;;;5115153;28;20203;-68
2023/08/01 11:37:46;;;;;;;4.22;3.65;;;;;;;;;;5116104;28;20213;-68
2023/08/01 11:40:14;;;;;;;3.30;2.90;;;;;;;;;;5116253;28;20213;-68
2023/08/01 11:42:42;;;;;;;4.30;2.85;;;;;;;;;;5115830;28;20321;-68
2023/08/01 11:45:11;;;;;;;4.65;4.25;;;;;;;;;;5115962;28;20698;-68
2023/08/01 11:47:38;;;;;;;2.50;2.30;;;;;;;;;;5115441;28;20205;-68
2023/08/01 11:50:07;;;;;;;1.85;1.60;;;;;;;;;;5116142;28;20532;-68
2023/08/01 11:52:35;;;;;;;2.30;1.98;;;;;;;;;;5115627;28;20317;-69
2023/08/01 11:55:02;;;;;;;2.25;2.03;;;;;;;;;;5115291;28;20250;-68
2023/08/01 11:57:30;;;;;;;1.90;1.70;;;;;;;;;;5114623;28;20209;-68
2023/08/01 11:59:59;;;;;;;2.30;2.10;;;;;;;;;;5114967;28;20213;-68
2023/08/01 12:02:26;;;;;;;2.13;1.92;;;;;;;;;;5115476;28;20222;-68
2023/08/01 12:04:54;;;;;;;2.45;2.25;;;;;;;;;;5116014;28;20533;-68
2023/08/01 12:07:22;;;;;;;3.38;1.80;;;;;;;;;;5115791;28;20305;-68
2023/08/01 12:09:59;;;;;;;1.52;1.40;;;;;;;;;;5115544;28;20282;-69
2023/08/01 12:12:28;;;;;;;1.70;1.60;;;;;;;;;;5115090;28;20222;-68
2023/08/01 12:14:55;;;;;;;1.90;1.70;;;;;;;;;;5114713;28;20297;-68
2023/08/01 12:17:24;;;;;;;1.77;1.50;;;;;;;;;;5116123;28;20202;-69
2023/08/01 12:19:52;;;;;;;1.55;1.45;;;;;;;;;;5115094;28;20234;-68
2023/08/01 12:22:19;;;;;;;1.85;1.70;;;;;;;;;;5114784;28;20203;-68
2023/08/01 12:24:47;;;;;;;1.60;1.50;;;;;;;;;;5114590;28;20205;-68
2023/08/01 12:27:15;;;;;;;1.80;1.60;;;;;;;;;;5115266;28;20203;-68
2023/08/01 12:29:42;;;;;;;2.83;1.95;;;;;;;;;;5115370;28;20203;-68
2023/08/01 12:32:10;;;;;;;2.15;2.03;;;;;;;;;;5114160;28;20665;-68
2023/08/01 12:34:39;;;;;;;5.75;5.25;;;;;;;;;;5114875;28;20241;-68
2023/08/01 12:37:06;;;;;;;4.97;4.45;;;;;;;;;;5115182;28;20305;-68
2023/08/01 12:39:34;;;;;;;4.78;4.25;;;;;;;;;;5115127;28;20250;-68
2023/08/01 12:42:01;;;;;;;4.82;4.43;;;;;;;;;;5114883;28;20294;-68
2023/08/01 12:44:29;;;;;;;6.47;5.88;;;;;;;;;;5114716;28;20253;-68
2023/08/01 12:46:56;;;;;;;9.98;9.00;;;;;;;;;;5114797;28;20501;-68
2023/08/01 12:49:24;;;;;;;11.75;10.63;;;;;;;;;;5115599;28;20464;-69
2023/08/01 12:51:53;;;;;;;14.63;13.23;;;;;;;;;;5115271;28;20262;-68
2023/08/01 12:54:20;;;;;;;14.40;13.00;;;;;;;;;;5115404;28;20290;-68
2023/08/01 12:56:48;;;;;;;13.07;11.88;;;;;;;;;;5114934;28;20199;-68
2023/08/01 12:59:15;;;;;;;9.07;8.20;;;;;;;;;;5115121;28;20209;-68
2023/08/01 13:01:42;;;;;;;8.32;7.43;;;;;;;;;;5114633;28;20203;-68
2023/08/01 13:04:10;;;;;;;10.30;9.13;;;;;;;;;;5113868;28;20249;-68
2023/08/01 13:06:37;;;;;;;8.88;7.97;;;;;;;;;;5114000;28;20546;-68
2023/08/01 13:09:06;;;;;;;16.73;15.05;;;;;;;;;;5113909;28;20291;-68
2023/08/01 13:11:33;;;;;;;4.05;3.75;;;;;;;;;;5117723;28;20207;-69
2023/08/01 13:14:01;;;;;;;9.27;8.35;;;;;;;;;;5117684;28;20297;-69
2023/08/01 13:16:28;;;;;;;6.03;5.40;;;;;;;;;;5117062;28;20199;-68
2023/08/01 13:18:56;;;;;;;5.30;4.80;;;;;;;;;;5117752;28;20213;-68
2023/08/01 13:21:24;;;;;;;3.40;3.15;;;;;;;;;;5118322;28;20301;-68
2023/08/01 13:23:51;;;;;;;8.27;7.57;;;;;;;;;;5117972;28;20222;-68
2023/08/01 13:26:20;;;;;;;4.22;3.83;;;;;;;;;;5117925;28;20328;-68
2023/08/01 13:28:48;;;;;;;3.33;3.03;;;;;;;;;;5117993;28;20199;-68
2023/08/01 13:31:15;;;;;;;3.17;2.88;;;;;;;;;;5117938;28;20215;-68
2023/08/01 13:33:43;;;;;;;2.80;2.60;;;;;;;;;;5118257;28;20312;-69
2023/08/01 13:36:10;;;;;;;2.88;2.55;;;;;;;;;;5118016;28;20203;-68
2023/08/01 13:38:37;;;;;;;2.80;2.40;;;;;;;;;;5119290;28;20537;-68
2023/08/01 13:41:05;;;;;;;2.42;2.22;;;;;;;;;;5118543;28;20234;-68
2023/08/01 13:43:34;;;;;;;3.33;2.30;;;;;;;;;;5118230;28;20225;-68
2023/08/01 13:46:01;;;;;;;2.53;2.33;;;;;;;;;;5118173;28;20787;-68
2023/08/01 13:48:29;;;;;;;2.33;2.13;;;;;;;;;;5118279;28;20269;-68
2023/08/01 13:50:59;;;;;;;2.30;2.10;;;;;;;;;;5116918;28;20321;-68
2023/08/01 13:53:26;;;;;;;2.15;2.05;;;;;;;;;;5116858;28;20222;-68
2023/08/01 13:55:54;;;;;;;4.75;2.40;;;;;;;;;;5117273;28;20503;-68
2023/08/01 13:58:21;;;;;;;2.30;2.10;;;;;;;;;;5117664;28;20290;-68
2023/08/01 14:00:50;;;;;;;2.40;2.20;;;;;;;;;;5117894;28;20233;-68
2023/08/01 14:03:17;;;;;;;1.98;1.88;;;;;;;;;;5118275;28;20223;-68
2023/08/01 14:05:45;;;;;;;3.78;2.10;;;;;;;;;;5117510;28;20531;-68
2023/08/01 14:08:12;;;;;;;2.50;2.30;;;;;;;;;;5117197;28;20559;-68
2023/08/01 14:10:40;;;;;;;2.63;2.42;;;;;;;;;;5117054;28;20795;-69
2023/08/01 14:13:07;;;;;;;2.47;2.28;;;;;;;;;;5116264;28;20199;-68
2023/08/01 14:15:35;;;;;;;3.20;2.47;;;;;;;;;;5117136;28;20298;-68
2023/08/01 14:18:03;;;;;;;2.83;2.33;;;;;;;;;;5115599;28;20208;-69
2023/08/01 14:20:31;;;;;;;2.50;2.30;;;;;;;;;;5116454;28;20653;-69
2023/08/01 14:22:58;;;;;;;2.60;2.40;;;;;;;;;;5115827;28;20286;-69
2023/08/01 14:25:26;;;;;;;2.58;2.38;;;;;;;;;;5116726;28;20272;-68
2023/08/01 14:27:53;;;;;;;2.50;2.30;;;;;;;;;;5116065;28;20238;-68
2023/08/01 14:30:20;;;;;;;2.63;2.42;;;;;;;;;;5117203;28;20203;-68
2023/08/01 14:32:48;;;;;;;2.28;2.08;;;;;;;;;;5116948;28;20295;-69
2023/08/01 14:35:17;;;;;;;3.13;2.60;;;;;;;;;;5116412;28;20199;-68
2023/08/01 14:37:48;;;;;;;2.28;2.08;;;;;;;;;;5116819;28;20199;-68
2023/08/01 14:40:15;;;;;;;3.63;2.15;;;;;;;;;;5116985;28;20217;-68
2023/08/01 14:42:42;;;;;;;2.50;2.30;;;;;;;;;;5117026;28;20495;-68
2023/08/01 14:45:12;;;;;;;2.65;2.20;;;;;;;;;;5106913;28;20255;-68
2023/08/01 14:47:39;;;;;;;2.58;2.25;;;;;;;;;;5096106;28;20473;-69